Time;durP1;ratioP1;P1;durP2;ratioP2;P2;SDS_P1;SDS_P2;PMS_P1;PMS_P2;Temp;Humidity;BMP_temperature;BMP_pressure;BME280_temperature;BME280_humidity;BME280_pressure;Samples;Min_cycle;Max_cycle;Signal;HPM_P1;HPM_P2
2022/10/02 00:01:54;;;;;;;;;4.00;4.00;;;;;17.44;64.35;101137.72;5054724;28;45478;-65
2022/10/02 00:04:36;;;;;;;;;3.00;3.00;;;;;17.39;64.38;101137.94;5055518;28;45485;-64
2022/10/02 00:07:06;;;;;;;;;2.33;2.33;;;;;17.38;64.96;101138.03;5055231;28;45360;-67
2022/10/02 00:09:39;;;;;;;;;3.33;3.33;;;;;17.29;64.98;101130.56;5055527;28;46220;-64
2022/10/02 00:12:10;;;;;;;;;4.00;4.00;;;;;17.38;64.57;101133.59;5055377;28;45592;-64
2022/10/02 00:14:39;;;;;;;;;2.33;2.33;;;;;17.38;64.74;101128.28;5056028;28;45372;-65
2022/10/02 00:17:08;;;;;;;;;4.00;3.67;;;;;17.45;64.87;101142.91;5055714;28;45621;-65
2022/10/02 00:19:33;;;;;;;;;5.00;4.00;;;;;17.44;65.19;101135.03;5055580;28;45672;-65
2022/10/02 00:22:20;;;;;;;;;5.67;4.00;;;;;17.46;65.12;101141.13;5055186;28;45435;-65
2022/10/02 00:25:04;;;;;;;;;5.00;3.67;;;;;17.47;65.48;101137.53;5055683;28;45391;-65
2022/10/02 00:28:01;;;;;;;;;4.33;3.33;;;;;17.42;65.48;101137.78;5055087;28;45546;-65
2022/10/02 00:30:32;;;;;;;;;6.33;4.00;;;;;17.43;65.61;101138.63;5055618;28;45390;-65
2022/10/02 00:33:21;;;;;;;;;3.00;3.00;;;;;17.46;65.79;101138.47;5055469;28;45542;-66
2022/10/02 00:35:52;;;;;;;;;3.00;3.00;;;;;17.42;66.28;101132.47;5036952;28;45427;-66
2022/10/02 00:38:18;;;;;;;;;3.67;3.67;;;;;17.42;66.06;101135.13;5054919;28;45439;-66
2022/10/02 00:40:55;;;;;;;;;3.00;3.00;;;;;17.46;66.27;101143.78;5055265;28;46128;-66
2022/10/02 00:43:42;;;;;;;;;3.33;3.33;;;;;17.41;66.35;101140.53;5054397;28;45487;-66
2022/10/02 00:46:10;;;;;;;;;3.67;2.33;;;;;17.47;66.33;101149.97;5033546;28;45493;-66
2022/10/02 00:48:41;;;;;;;;;5.67;3.00;;;;;17.44;66.16;101153.66;5035373;28;45432;-66
2022/10/02 00:51:25;;;;;;;;;2.67;2.67;;;;;17.48;65.95;101152.53;5035325;28;45472;-65
2022/10/02 00:54:09;;;;;;;;;4.33;2.67;;;;;17.49;66.38;101153.38;5046870;28;45380;-66
2022/10/02 00:57:03;;;;;;;;;2.00;2.00;;;;;17.50;66.89;101158.63;5057020;28;45343;-66
2022/10/02 00:59:37;;;;;;;;;2.00;2.00;;;;;17.46;66.88;101159.72;5058542;28;45457;-65
2022/10/02 01:02:11;;;;;;;;;3.00;3.00;;;;;17.44;67.01;101159.84;5058478;28;45361;-65
2022/10/02 01:04:38;;;;;;;;;4.00;2.00;;;;;17.47;67.30;101161.47;5058789;28;45364;-65
2022/10/02 01:07:07;;;;;;;;;4.00;3.00;;;;;17.49;67.72;101156.03;5058488;28;45385;-65
2022/10/02 01:09:33;;;;;;;;;5.33;2.67;;;;;17.42;66.77;101148.41;5058229;28;45392;-66
2022/10/02 01:11:59;;;;;;;;;2.00;2.00;;;;;17.43;68.30;101154.59;5057889;28;46326;-66
2022/10/02 01:14:35;;;;;;;;;2.00;2.00;;;;;17.42;68.21;101151.06;5058782;28;45629;-66
2022/10/02 01:17:01;;;;;;;;;3.00;3.00;;;;;17.41;68.00;101144.06;5058642;28;45458;-66
2022/10/02 01:19:37;;;;;;;;;2.00;2.00;;;;;17.45;68.11;101150.91;5058420;28;45431;-65
2022/10/02 01:22:14;;;;;;;;;4.00;3.00;;;;;17.44;68.40;101138.56;5026191;28;47660;-65
2022/10/02 01:24:46;;;;;;;;;4.67;3.00;;;;;17.42;68.02;101132.47;5038000;28;45392;-65
2022/10/02 01:27:11;;;;;;;;;6.00;3.00;;;;;17.44;69.16;101135.03;5038116;28;45452;-65
2022/10/02 01:29:37;;;;;;;;;1.00;1.00;;;;;17.47;69.06;101144.66;5037871;28;45460;-66
2022/10/02 01:32:03;;;;;;;;;2.00;2.00;;;;;17.47;69.34;101134.88;5038114;28;45386;-65
2022/10/02 01:34:29;;;;;;;;;2.67;2.00;;;;;17.47;70.16;101134.03;5020153;28;46255;-66
2022/10/02 01:36:54;;;;;;;;;4.00;2.00;;;;;17.40;69.24;101126.38;5037571;28;45499;-65
2022/10/02 01:39:21;;;;;;;;;2.00;2.00;;;;;17.44;69.91;101127.91;5037493;28;45436;-65
2022/10/02 01:41:47;;;;;;;;;2.33;2.00;;;;;17.45;69.77;101129.63;5019981;28;47065;-66
2022/10/02 01:44:14;;;;;;;;;2.67;1.00;;;;;17.38;70.74;101122.06;5052766;28;45497;-65
2022/10/02 01:46:53;;;;;;;;;1.00;1.00;;;;;17.43;71.01;101130.66;5057056;28;45494;-65
2022/10/02 01:49:40;;;;;;;;;2.00;2.00;;;;;17.39;71.09;101139.75;5039117;28;45553;-65
2022/10/02 01:52:16;;;;;;;;;2.00;2.00;;;;;17.40;71.29;101142.31;5057828;28;46542;-65
2022/10/02 01:54:56;;;;;;;;;3.00;1.67;;;;;17.41;71.03;101136.06;5058016;28;45313;-66
2022/10/02 01:57:43;;;;;;;;;2.33;1.00;;;;;17.46;70.32;101130.47;5058219;28;45439;-65
2022/10/02 02:00:24;;;;;;;;;2.00;2.00;;;;;17.41;69.17;101120.13;5057816;28;45420;-66
2022/10/02 02:03:20;;;;;;;;;0.67;0.67;;;;;17.40;71.45;101122.84;5056587;28;45418;-66
2022/10/02 02:05:48;;;;;;;;;3.67;2.00;;;;;17.38;71.21;101133.59;5057547;28;45473;-65
2022/10/02 02:08:31;;;;;;;;;2.00;2.00;;;;;17.33;71.87;101125.00;5056893;28;45406;-65
2022/10/02 02:11:12;;;;;;;;;1.00;1.00;;;;;17.30;72.49;101116.31;5057837;28;45532;-65
2022/10/02 02:13:46;;;;;;;;;2.00;2.00;;;;;17.35;70.86;101125.75;5057526;28;45409;-65
2022/10/02 02:16:26;;;;;;;;;3.00;2.00;;;;;17.31;72.95;101124.22;5038803;28;45515;-65
2022/10/02 02:18:57;;;;;;;;;2.33;2.00;;;;;17.33;73.26;101124.13;5056864;28;45523;-65
2022/10/02 02:21:30;;;;;;;;;3.00;3.00;;;;;17.29;73.27;101112.81;5057270;28;45494;-66
2022/10/02 02:24:00;;;;;;;;;2.67;2.00;;;;;17.34;73.67;101113.41;5038926;28;46101;-66
2022/10/02 02:26:27;;;;;;;;;2.00;2.00;;;;;17.30;73.67;101097.72;5057393;28;45387;-65
2022/10/02 02:28:59;;;;;;;;;2.00;2.00;;;;;17.31;73.86;101100.28;5056836;28;45520;-66
2022/10/02 02:31:31;;;;;;;;;1.00;1.00;;;;;17.33;73.89;101106.41;5056784;28;45520;-65
2022/10/02 02:34:02;;;;;;;;;3.00;2.00;;;;;17.35;73.52;101096.50;5038370;28;45686;-65
2022/10/02 02:36:41;;;;;;;;;3.00;3.00;;;;;17.33;74.14;101092.22;5057295;28;45535;-66
2022/10/02 02:39:15;;;;;;;;;2.33;2.00;;;;;17.34;73.62;101091.28;5057533;28;45454;-65
2022/10/02 02:41:47;;;;;;;;;2.00;2.00;;;;;17.32;73.40;101083.38;5056884;28;45467;-65
2022/10/02 02:44:39;;;;;;;;;3.00;2.00;;;;;17.37;73.77;101094.63;5055637;28;45463;-66
2022/10/02 02:47:14;;;;;;;;;1.33;1.33;;;;;17.37;73.63;101091.13;5045599;28;45368;-65
2022/10/02 02:49:58;;;;;;;;;4.00;2.33;;;;;17.35;73.73;101079.69;5057160;28;45375;-66
2022/10/02 02:52:39;;;;;;;;;2.00;2.00;;;;;17.34;73.65;101089.47;5066189;28;45400;-65
2022/10/02 02:55:09;;;;;;;;;1.00;1.00;;;;;17.31;73.88;101084.34;5056587;28;45517;-65
2022/10/02 02:57:50;;;;;;;;;2.00;2.00;;;;;17.29;74.06;101080.06;5048540;28;45513;-66
2022/10/02 03:00:18;;;;;;;;;2.00;2.00;;;;;17.27;74.92;101077.47;5071771;28;45394;-65
2022/10/02 03:02:43;;;;;;;;;1.00;1.00;;;;;17.24;74.50;101069.66;5061718;28;45537;-65
2022/10/02 03:05:15;;;;;;;;;2.00;2.00;;;;;17.22;74.21;101063.56;5056522;28;46311;-65
2022/10/02 03:07:56;;;;;;;;;2.00;2.00;;;;;17.31;74.57;101076.38;5056691;28;45475;-65
2022/10/02 03:10:55;;;;;;;;;2.00;2.00;;;;;17.24;74.07;101059.03;5056250;28;45490;-65
2022/10/02 03:14:06;;;;;;;;;2.00;2.00;;;;;17.33;74.74;101077.16;5048303;28;45356;-65
2022/10/02 03:16:59;;;;;;;;;3.67;2.00;;;;;17.32;73.85;101069.25;5022403;28;48710;-65
2022/10/02 03:19:51;;;;;;;;;2.00;2.00;;;;;17.27;74.76;101056.19;5037672;28;45478;-65
2022/10/02 03:22:29;;;;;;;;;2.00;2.00;;;;;17.27;75.38;101065.97;5056710;28;45183;-65
2022/10/02 03:25:09;;;;;;;;;2.00;2.00;;;;;17.31;74.57;101071.06;5054952;28;45502;-65
2022/10/02 03:27:38;;;;;;;;;1.00;1.00;;;;;17.29;75.12;101059.63;5038138;28;47604;-65
2022/10/02 03:30:11;;;;;;;;;3.00;1.67;;;;;17.34;75.56;101070.03;5056354;28;45469;-65
2022/10/02 03:32:39;;;;;;;;;3.33;2.33;;;;;17.32;75.14;101067.44;5056514;28;45395;-65
2022/10/02 03:35:07;;;;;;;;;1.33;1.33;;;;;17.27;75.41;101053.53;5056557;28;45598;-65
2022/10/02 03:37:33;;;;;;;;;2.00;2.00;;;;;17.34;74.80;101056.72;5055873;28;45651;-65
2022/10/02 03:40:04;;;;;;;;;2.00;2.00;;;;;17.33;75.63;101058.53;5056186;28;45375;-65
2022/10/02 03:42:31;;;;;;;;;0.33;0.00;;;;;17.38;75.39;101060.91;5056305;28;45379;-66
2022/10/02 03:44:57;;;;;;;;;1.00;1.00;;;;;17.32;75.39;101059.47;5055801;28;45455;-65
2022/10/02 03:47:22;;;;;;;;;1.00;1.00;;;;;17.38;74.44;101058.25;5056096;28;46514;-65
2022/10/02 03:49:47;;;;;;;;;0.33;0.33;;;;;17.37;75.46;101060.06;5056087;28;45686;-64
2022/10/02 03:52:19;;;;;;;;;2.00;2.00;;;;;17.36;75.97;101062.81;5055518;28;45699;-65
2022/10/02 03:54:47;;;;;;;;;1.00;1.00;;;;;17.34;75.97;101062.91;5038556;28;45539;-65
2022/10/02 03:57:22;;;;;;;;;1.00;1.00;;;;;17.34;75.93;101049.59;5040105;28;45514;-65
2022/10/02 04:00:05;;;;;;;;;2.00;2.00;;;;;17.37;75.55;101052.09;5055719;28;45422;-64
2022/10/02 04:02:43;;;;;;;;;1.00;1.00;;;;;17.40;75.56;101059.03;5055586;28;45486;-65
2022/10/02 04:05:14;;;;;;;;;1.00;1.00;;;;;17.42;75.82;101050.03;5055293;28;45395;-65
2022/10/02 04:07:44;;;;;;;;;1.00;1.00;;;;;17.40;75.98;101059.88;5055059;28;45344;-65
2022/10/02 04:10:12;;;;;;;;;1.67;1.67;;;;;17.38;75.73;101056.47;5061995;28;45533;-65
2022/10/02 04:12:44;;;;;;;;;2.33;2.33;;;;;17.39;76.34;101060.84;5055633;28;45470;-65
2022/10/02 04:15:30;;;;;;;;;1.00;1.00;;;;;17.41;75.78;101061.63;5038801;28;45447;-65
2022/10/02 04:18:21;;;;;;;;;0.00;0.00;;;;;17.39;76.25;101065.31;5035456;28;46276;-65
2022/10/02 04:21:09;;;;;;;;;0.33;0.33;;;;;17.41;76.29;101064.28;5030877;28;45452;-65
2022/10/02 04:23:47;;;;;;;;;0.00;0.00;;;;;17.43;75.61;101067.69;5027331;28;45472;-65
2022/10/02 04:26:20;;;;;;;;;1.00;1.00;;;;;17.43;76.02;101061.50;5035619;28;45471;-65
2022/10/02 04:28:53;;;;;;;;;0.67;0.67;;;;;17.41;75.77;101063.44;5041683;28;46487;-65
2022/10/02 04:31:18;;;;;;;;;0.00;0.00;;;;;17.41;76.12;101064.28;5056711;28;45513;-64
2022/10/02 04:33:43;;;;;;;;;0.00;0.00;;;;;17.43;75.87;101061.50;5058459;28;45477;-65
2022/10/02 04:36:19;;;;;;;;;0.00;0.00;;;;;17.51;75.47;101067.25;5041062;28;45579;-65
2022/10/02 04:39:06;;;;;;;;;0.00;0.00;;;;;17.51;75.41;101061.09;5058943;28;45500;-65
2022/10/02 04:41:42;;;;;;;;;0.00;0.00;;;;;17.52;75.18;101065.47;5069050;28;45479;-65
2022/10/02 04:44:36;;;;;;;;;0.00;0.00;;;;;17.51;75.55;101066.41;5079524;28;45418;-64
2022/10/02 04:47:20;;;;;;;;;1.00;1.00;;;;;17.55;75.23;101073.28;5072125;28;45461;-64
2022/10/02 04:49:49;;;;;;;;;0.00;0.00;;;;;17.54;75.31;101075.06;5042646;28;46992;-64
2022/10/02 04:52:33;;;;;;;;;0.00;0.00;;;;;17.54;75.10;101075.06;5058648;28;45397;-64
2022/10/02 04:55:05;;;;;;;;;1.00;0.00;;;;;17.54;75.37;101068.88;5058997;28;45415;-65
2022/10/02 04:57:48;;;;;;;;;0.00;0.00;;;;;17.53;75.08;101080.47;5059501;28;45558;-64
2022/10/02 05:00:20;;;;;;;;;0.00;0.00;;;;;17.51;74.97;101072.56;5058275;28;45437;-64
2022/10/02 05:03:00;;;;;;;;;0.00;0.00;;;;;17.52;75.24;101082.28;5058157;28;45435;-65
2022/10/02 05:05:31;;;;;;;;;0.00;0.00;;;;;17.49;75.51;101087.78;5040981;28;45368;-64
2022/10/02 05:08:21;;;;;;;;;0.00;0.00;;;;;17.47;75.38;101092.31;5058731;28;45470;-65
2022/10/02 05:11:03;;;;;;;;;0.00;0.00;;;;;17.48;75.10;101074.56;5057836;28;45463;-64
2022/10/02 05:13:31;;;;;;;;;1.00;0.00;;;;;17.47;75.00;101081.69;5058410;28;45479;-64
2022/10/02 05:16:34;;;;;;;;;0.00;0.00;;;;;17.48;75.13;101079.88;5058235;28;45345;-64
2022/10/02 05:19:24;;;;;;;;;0.00;0.00;;;;;17.48;74.74;101079.88;5058709;28;45547;-64
2022/10/02 05:22:15;;;;;;;;;0.00;0.00;;;;;17.48;74.63;101079.88;5057986;28;46249;-64
2022/10/02 05:25:20;;;;;;;;;0.00;0.00;;;;;17.41;74.88;101082.91;5057366;28;45394;-64
2022/10/02 05:28:25;;;;;;;;;0.00;0.00;;;;;17.37;74.78;101088.47;5058196;28;45406;-65
2022/10/02 05:31:02;;;;;;;;;0.00;0.00;;;;;17.41;74.66;101084.69;5058388;28;45527;-64
2022/10/02 05:33:46;;;;;;;;;0.00;0.00;;;;;17.37;74.91;101078.66;5057999;28;46293;-64
2022/10/02 05:36:12;;;;;;;;;0.00;0.00;;;;;17.38;74.97;101085.72;5058240;28;45321;-64
2022/10/02 05:39:00;;;;;;;;;0.33;0.00;;;;;17.37;75.18;101089.31;5057792;28;45352;-65
2022/10/02 05:42:01;;;;;;;;;0.00;0.00;;;;;17.36;75.12;101092.94;5058271;28;45589;-65
2022/10/02 05:44:50;;;;;;;;;0.00;0.00;;;;;17.34;74.73;101085.97;5057228;28;46517;-65
2022/10/02 05:47:33;;;;;;;;;0.00;0.00;;;;;17.36;74.71;101087.59;5058280;28;45588;-65
2022/10/02 05:50:08;;;;;;;;;0.00;0.00;;;;;17.34;74.58;101083.31;5057768;28;45455;-65
2022/10/02 05:52:44;;;;;;;;;0.00;0.00;;;;;17.37;74.70;101099.09;5058130;28;45502;-65
2022/10/02 05:55:22;;;;;;;;;0.00;0.00;;;;;17.35;75.15;101109.81;5057202;28;45560;-65
2022/10/02 05:57:54;;;;;;;;;0.00;0.00;;;;;17.28;74.63;101103.13;5058215;28;45510;-65
2022/10/02 06:00:37;;;;;;;;;0.67;0.00;;;;;17.33;74.71;101117.03;5063265;28;45364;-65
2022/10/02 06:03:23;;;;;;;;;0.00;0.00;;;;;17.33;74.82;101111.72;5057430;28;45448;-65
2022/10/02 06:06:25;;;;;;;;;0.00;0.00;;;;;17.34;74.39;101120.53;5043381;28;45548;-65
2022/10/02 06:08:57;;;;;;;;;0.00;0.00;;;;;17.35;74.16;101116.94;5025670;28;45457;-65
2022/10/02 06:11:32;;;;;;;;;0.00;0.00;;;;;17.33;74.16;101105.50;5044957;28;45502;-65
2022/10/02 06:14:16;;;;;;;;;0.00;0.00;;;;;17.34;74.74;101107.25;5037210;28;45473;-66
2022/10/02 06:16:54;;;;;;;;;0.00;0.00;;;;;17.37;74.68;101112.38;5037409;28;46432;-66
2022/10/02 06:19:36;;;;;;;;;0.00;0.00;;;;;17.34;74.65;101107.25;5053962;28;45513;-66
2022/10/02 06:22:15;;;;;;;;;1.00;1.00;;;;;17.29;74.82;101107.50;5057790;28;45532;-66
2022/10/02 06:24:52;;;;;;;;;0.00;0.00;;;;;17.27;75.00;101104.06;5057384;28;45464;-66
2022/10/02 06:27:42;;;;;;;;;0.00;0.00;;;;;17.28;75.30;101112.91;5057436;28;46167;-66
2022/10/02 06:30:12;;;;;;;;;0.00;0.00;;;;;17.33;75.25;101110.81;5056953;28;45387;-66
2022/10/02 06:32:52;;;;;;;;;0.00;0.00;;;;;17.33;74.31;101106.41;5021787;28;45381;-66
2022/10/02 06:35:45;;;;;;;;;0.00;0.00;;;;;17.31;75.52;101110.94;5054174;28;45408;-66
2022/10/02 06:38:34;;;;;;;;;0.00;0.00;;;;;17.30;74.84;101103.03;5055892;28;46544;-66
2022/10/02 06:41:33;;;;;;;;;0.00;0.00;;;;;17.32;75.59;101120.59;5057077;28;45621;-66
2022/10/02 06:44:18;;;;;;;;;0.00;0.00;;;;;17.33;75.78;101113.47;5057422;28;45500;-66
2022/10/02 06:46:52;;;;;;;;;1.00;1.00;;;;;17.38;75.41;101114.09;5056944;28;45380;-66
2022/10/02 06:49:29;;;;;;;;;0.00;0.00;;;;;17.39;74.81;101116.69;5056709;28;45529;-66
2022/10/02 06:52:22;;;;;;;;;0.00;0.00;;;;;17.43;74.80;101114.69;5057046;28;45403;-66
2022/10/02 06:55:21;;;;;;;;;0.00;0.00;;;;;17.37;75.21;101099.09;5056286;28;45452;-66
2022/10/02 06:57:47;;;;;;;;;0.00;0.00;;;;;17.47;74.89;101120.72;5057067;28;45378;-66
2022/10/02 07:00:17;;;;;;;;;0.00;0.00;;;;;17.44;75.33;101111.97;5038529;28;47058;-66
2022/10/02 07:03:05;;;;;;;;;0.00;0.00;;;;;17.50;75.33;101123.22;5056384;28;45498;-65
2022/10/02 07:05:40;;;;;;;;;0.00;0.00;;;;;17.50;75.46;101121.41;5056820;28;45455;-66
2022/10/02 07:08:39;;;;;;;;;0.00;0.00;;;;;17.51;74.92;101119.59;5022684;28;45674;-66
2022/10/02 07:11:26;;;;;;;;;1.00;1.00;;;;;17.45;75.09;101115.47;5033103;28;48022;-66
2022/10/02 07:13:58;;;;;;;;;0.00;0.00;;;;;17.47;75.63;101110.94;5052369;28;45466;-66
2022/10/02 07:16:32;;;;;;;;;0.00;0.00;;;;;17.54;75.07;101117.59;5056671;28;45481;-66
2022/10/02 07:19:07;;;;;;;;;0.00;0.00;;;;;17.54;75.64;101109.63;5056093;28;45446;-66
2022/10/02 07:21:51;;;;;;;;;0.00;0.00;;;;;17.54;75.41;101108.78;5056383;28;45706;-66
2022/10/02 07:24:51;;;;;;;;;0.00;0.00;;;;;17.55;74.95;101113.16;5056371;28;45453;-67
2022/10/02 07:27:36;;;;;;;;;0.00;0.00;;;;;17.56;74.49;101117.53;5056418;28;45421;-66
2022/10/02 07:30:06;;;;;;;;;0.00;0.00;;;;;17.58;74.43;101108.53;5033078;28;45535;-68
2022/10/02 07:32:49;;;;;;;;;0.00;0.00;;;;;17.54;74.20;101103.47;5054709;28;45524;-67
2022/10/02 07:35:35;;;;;;;;;0.00;0.00;;;;;17.60;73.44;101114.63;5055214;28;45370;-69
2022/10/02 07:38:14;;;;;;;;;1.00;0.00;;;;;17.57;73.67;101111.25;5055885;28;45674;-68
2022/10/02 07:40:58;;;;;;;;;0.00;0.00;;;;;17.63;73.26;101135.72;5056166;28;45794;-68
2022/10/02 07:43:42;;;;;;;;;1.00;1.00;;;;;17.62;73.46;101127.81;5055647;28;46430;-68
2022/10/02 07:46:26;;;;;;;;;0.00;0.00;;;;;17.59;73.48;101114.69;5055667;28;45530;-66
2022/10/02 07:49:15;;;;;;;;;1.33;0.67;;;;;17.64;73.57;101123.28;5056248;28;45518;-65
2022/10/02 07:51:56;;;;;;;;;1.00;1.00;;;;;17.64;73.04;101118.81;5055930;28;45463;-66
2022/10/02 07:54:47;;;;;;;;;1.00;1.00;;;;;17.65;73.23;101117.88;5055940;28;45542;-70
2022/10/02 07:57:31;;;;;;;;;0.00;0.00;;;;;17.67;72.74;101123.94;5055451;28;45380;-68
2022/10/02 08:00:05;;;;;;;;;0.00;0.00;;;;;17.64;73.13;101125.94;5055576;28;45438;-69
2022/10/02 08:02:55;;;;;;;;;0.33;0.33;;;;;17.67;72.76;101131.09;5054451;28;45887;-68
2022/10/02 08:05:27;;;;;;;;;1.00;1.00;;;;;17.74;72.88;101151.09;5054874;28;45407;-69
2022/10/02 08:08:01;;;;;;;;;3.00;2.00;;;;;17.79;72.33;101143.75;5055078;28;45439;-67
2022/10/02 08:10:33;;;;;;;;;1.50;1.00;;;;;17.81;72.54;101151.63;5038133;28;45520;-67
2022/10/02 08:13:09;;;;;;;;;1.33;1.00;;;;;17.81;72.33;101159.59;5076123;28;45463;-66
2022/10/02 08:15:37;;;;;;;;;1.00;1.00;;;;;17.83;71.69;101149.72;5075833;28;46614;-67
2022/10/02 08:18:23;;;;;;;;;2.00;1.00;;;;;17.85;71.99;101153.16;5035723;28;45677;-68
2022/10/02 08:20:51;;;;;;;;;1.00;1.00;;;;;17.88;71.92;101158.31;5043262;28;45556;-66
2022/10/02 08:23:41;;;;;;;;;1.00;1.00;;;;;17.91;71.80;101152.81;5055561;28;45507;-65
2022/10/02 08:26:57;;;;;;;;;2.00;2.00;;;;;17.98;71.09;101156.00;5055511;28;45540;-65
2022/10/02 08:29:47;;;;;;;;;2.00;1.00;;;;;17.96;71.36;101160.53;5009961;28;45507;-69
2022/10/02 08:32:13;;;;;;;;;3.00;1.00;;;;;18.01;71.05;101163.78;5055967;28;45439;-70
2022/10/02 08:34:41;;;;;;;;;1.00;1.00;;;;;18.01;71.46;101154.00;5055438;28;45462;-65
2022/10/02 08:37:24;;;;;;;;;1.00;1.00;;;;;18.04;71.10;101158.28;5055162;28;45724;-66
2022/10/02 08:40:08;;;;;;;;;3.00;3.00;;;;;18.06;71.25;101164.41;5055136;28;45441;-71
2022/10/02 08:43:03;;;;;;;;;2.00;2.00;;;;;18.08;71.14;101159.81;5055383;28;45492;-68
2022/10/02 08:45:54;;;;;;;;;4.00;4.00;;;;;18.06;71.00;101157.25;5055241;28;45440;-68
2022/10/02 08:48:57;;;;;;;;;3.00;3.00;;;;;18.09;71.16;101159.75;5054875;28;46397;-67
2022/10/02 08:51:59;;;;;;;;;1.33;1.33;;;;;18.14;70.92;101166.63;5055063;28;45316;-70
2022/10/02 08:54:42;;;;;;;;;2.00;2.00;;;;;18.17;71.04;101167.28;5055453;28;45427;-70
2022/10/02 08:57:15;;;;;;;;;2.00;2.00;;;;;18.23;70.88;101171.41;5055449;28;45407;-69
2022/10/02 09:00:03;;;;;;;;;4.00;3.33;;;;;18.26;71.02;101171.22;5054732;28;45992;-69
2022/10/02 09:03:05;;;;;;;;;3.67;2.00;;;;;18.25;70.93;101170.38;5054964;28;45481;-67
2022/10/02 09:05:40;;;;;;;;;5.67;2.33;;;;;18.28;70.91;101170.19;5055151;28;45392;-69
2022/10/02 09:08:43;;;;;;;;;3.00;3.00;;;;;18.32;70.46;101169.06;5054786;28;45406;-65
2022/10/02 09:11:36;;;;;;;;;1.50;1.50;;;;;18.30;70.76;101167.44;5054864;28;46166;-66
2022/10/02 09:14:13;;;;;;;;;2.33;2.33;;;;;18.38;70.65;101170.50;5036976;28;45353;-68
2022/10/02 09:16:57;;;;;;;;;1.67;1.67;;;;;18.41;70.26;101166.81;5037162;28;45412;-68
2022/10/02 09:19:59;;;;;;;;;2.00;2.00;;;;;18.41;70.67;101167.66;5057598;28;45474;-67
2022/10/02 09:22:52;;;;;;;;;1.00;1.00;;;;;18.38;70.64;101170.50;5058180;28;45503;-70
2022/10/02 09:25:27;;;;;;;;;2.00;2.00;;;;;18.37;70.32;101165.25;5058180;28;45527;-65
2022/10/02 09:28:17;;;;;;;;;1.00;1.00;;;;;18.41;70.45;101172.13;5040076;28;45424;-66
2022/10/02 09:31:23;;;;;;;;;1.00;1.00;;;;;18.41;70.75;101169.47;5057938;28;45538;-64
2022/10/02 09:34:27;;;;;;;;;0.50;0.50;;;;;18.45;70.41;101166.50;5057520;28;45702;-66
2022/10/02 09:37:30;;;;;;;;;2.67;1.00;;;;;18.45;70.94;101163.00;5058046;28;45431;-66
2022/10/02 09:40:25;;;;;;;;;1.00;1.00;;;;;18.44;70.62;101171.94;5040003;28;45439;-69
2022/10/02 09:43:24;;;;;;;;;0.50;0.50;;;;;18.49;70.19;101164.53;5040207;28;45361;-66
2022/10/02 09:46:11;;;;;;;;;1.00;1.00;;;;;18.50;70.40;101167.09;5057785;28;45434;-66
2022/10/02 09:49:16;;;;;;;;;0.00;0.00;;;;;18.51;70.54;101174.16;5057969;28;45482;-69
2022/10/02 09:52:00;;;;;;;;;0.00;0.00;;;;;18.56;70.25;101165.88;5037216;28;45376;-67
2022/10/02 09:55:24;;;;;;;;;0.25;0.25;;;;;18.54;70.34;101144.66;5046870;28;45582;-67
2022/10/02 09:58:24;;;;;;;;;2.00;2.00;;;;;18.63;70.35;101167.22;5053222;28;46462;-65
2022/10/02 10:01:13;;;;;;;;;1.00;1.00;;;;;18.66;69.92;101175.03;5037604;28;45424;-69
2022/10/02 10:03:57;;;;;;;;;0.50;0.50;;;;;18.66;69.89;101167.03;5048352;28;45463;-69
2022/10/02 10:06:41;;;;;;;;;1.00;1.00;;;;;18.71;70.18;101175.63;5057341;28;45471;-66
2022/10/02 10:09:21;;;;;;;;;0.50;0.50;;;;;18.77;70.09;101179.75;5056263;28;45554;-67
2022/10/02 10:12:01;;;;;;;;;3.75;2.75;;;;;18.74;70.03;101175.47;5056750;28;45525;-67
2022/10/02 10:14:51;;;;;;;;;16.33;15.00;;;;;18.79;70.38;101179.69;5025747;28;45416;-65
2022/10/02 10:17:19;;;;;;;;;4.00;4.00;;;;;18.82;69.89;101171.50;5048304;28;45575;-66
2022/10/02 10:20:11;;;;;;;;;9.33;9.33;;;;;18.86;69.65;101165.00;5041716;28;45533;-67
2022/10/02 10:23:02;;;;;;;;;2.33;2.33;;;;;18.90;69.42;101175.41;5057135;28;45496;-66
2022/10/02 10:25:33;;;;;;;;;5.00;4.67;;;;;18.91;69.35;101177.13;5057142;28;45529;-65
2022/10/02 10:28:11;;;;;;;;;6.67;4.33;;;;;18.88;69.55;101177.28;5057434;28;45589;-74
2022/10/02 10:30:45;;;;;;;;;2.00;1.67;;;;;18.92;69.49;101184.16;5056433;28;46430;-83
2022/10/02 10:33:49;;;;;;;;;7.00;4.33;;;;;18.95;69.00;101165.31;5055248;28;45455;-68
2022/10/02 10:39:29;;;;;;;;;1.50;0.50;;;;;19.02;68.37;101172.91;5036880;28;45507;-67
2022/10/02 10:42:29;;;;;;;;;2.67;2.67;;;;;19.01;68.63;101164.06;5036813;28;46444;-67
2022/10/02 10:45:26;;;;;;;;;3.00;3.00;;;;;19.10;68.07;101170.63;5036786;28;45447;-68
2022/10/02 10:47:57;;;;;;;;;1.50;1.50;;;;;19.10;67.84;101181.31;5036273;28;45469;-68
2022/10/02 10:50:33;;;;;;;;;2.00;1.00;;;;;19.10;67.95;101175.97;5036274;28;45416;-68
2022/10/02 10:53:17;;;;;;;;;0.75;0.75;;;;;19.10;67.51;101165.31;5036674;28;45917;-67
2022/10/02 10:56:06;;;;;;;;;1.75;1.75;;;;;19.13;67.60;101168.66;5036709;28;45337;-69
2022/10/02 10:58:49;;;;;;;;;1.75;0.50;;;;;19.11;67.36;101167.03;5037368;28;45446;-68
2022/10/02 11:01:41;;;;;;;;;0.00;0.00;;;;;19.15;67.10;101180.06;5036973;28;45425;-67
2022/10/02 11:04:12;;;;;;;;;0.25;0.25;;;;;19.19;67.04;101170.09;5028165;28;45675;-67
2022/10/02 11:07:06;;;;;;;;;1.00;0.50;;;;;19.20;66.91;101164.63;5036427;28;45464;-70
2022/10/02 11:10:06;;;;;;;;;1.00;1.00;;;;;19.23;67.18;101184.94;5018806;28;45515;-68
2022/10/02 11:12:56;;;;;;;;;1.00;1.00;;;;;19.25;66.20;101171.50;5036667;28;45408;-68
2022/10/02 11:15:30;;;;;;;;;2.75;0.75;;;;;19.28;66.09;101166.84;5036714;28;45516;-69
2022/10/02 11:18:14;;;;;;;;;0.25;0.25;;;;;19.33;66.15;101172.72;5036494;28;45293;-70
2022/10/02 11:21:12;;;;;;;;;0.00;0.00;;;;;19.39;65.81;101167.00;5036409;28;45447;-70
2022/10/02 11:23:40;;;;;;;;;2.00;2.00;;;;;19.41;65.90;101161.59;5036243;28;45451;-66
2022/10/02 11:26:24;;;;;;;;;1.00;1.00;;;;;19.40;66.17;101167.88;5047262;28;46677;-65
2022/10/02 11:29:13;;;;;;;;;1.50;0.75;;;;;19.36;65.36;101187.69;5055957;28;45446;-68
2022/10/02 11:32:13;;;;;;;;;14.67;13.33;;;;;19.32;65.56;101159.50;5055840;28;45400;-65
2022/10/02 11:34:51;;;;;;;;;0.25;0.25;;;;;19.34;66.22;101173.59;5056349;28;45618;-66
2022/10/02 11:37:31;;;;;;;;;0.00;0.00;;;;;19.32;66.04;101168.38;5055991;28;45542;-65
2022/10/02 11:40:19;;;;;;;;;1.00;1.00;;;;;19.32;65.55;101175.53;5055853;28;45506;-67
2022/10/02 11:43:03;;;;;;;;;0.25;0.25;;;;;19.35;65.63;101175.31;5015995;28;45572;-68
2022/10/02 11:45:54;;;;;;;;;0.75;0.75;;;;;19.35;65.60;101173.50;5056328;28;45401;-67
2022/10/02 11:48:37;;;;;;;;;1.75;1.75;;;;;19.39;65.71;101171.50;5056111;28;45394;-69
2022/10/02 11:51:11;;;;;;;;;0.75;0.75;;;;;19.32;65.90;101156.84;5056043;28;45371;-66
2022/10/02 11:54:01;;;;;;;;;0.75;0.75;;;;;19.35;66.18;101186.84;5056217;28;45499;-66
2022/10/02 11:56:38;;;;;;;;;3.75;1.75;;;;;19.32;67.13;101192.38;5056128;28;45560;-67
2022/10/02 11:59:27;;;;;;;;;0.75;0.75;;;;;19.29;68.78;101213.03;5056527;28;45577;-66
2022/10/02 12:02:04;;;;;;;;;3.00;2.00;;;;;19.14;68.79;101210.34;5054772;28;45467;-67
2022/10/02 12:05:26;;;;;;;;;1.00;1.00;;;;;19.06;73.31;101212.63;5055982;28;45371;-67
2022/10/02 12:08:23;;;;;;;;;1.50;1.50;;;;;19.07;72.49;101211.69;4974205;28;45547;-66
2022/10/02 12:10:54;;;;;;;;;0.75;0.75;;;;;19.13;73.16;101208.66;4972984;28;45450;-66
2022/10/02 12:13:25;;;;;;;;;3.00;3.00;;;;;19.14;73.67;101197.03;5042087;28;45487;-68
2022/10/02 12:15:59;;;;;;;;;1.75;1.75;;;;;19.24;73.07;101194.66;5055687;28;45432;-65
2022/10/02 12:18:43;;;;;;;;;4.00;1.50;;;;;19.38;72.21;101199.13;5055709;28;45337;-65
2022/10/02 12:27:29;;;;;;;;;1.00;1.00;;;;;19.46;71.54;101190.66;5055758;28;45396;-68
2022/10/02 12:30:11;;;;;;;;;0.50;0.50;;;;;19.45;71.76;101187.13;5055232;28;45678;-66
2022/10/02 12:33:07;;;;;;;;;0.75;0.75;;;;;19.38;70.79;101191.97;5054016;28;45725;-66
2022/10/02 12:36:08;;;;;;;;;2.00;1.00;;;;;19.37;72.54;101190.28;5037195;28;45833;-66
2022/10/02 12:38:49;;;;;;;;;0.75;0.75;;;;;19.35;71.79;101194.84;5029198;28;45557;-67